Grandeur Of The Seas — C6SE3 — position and weather

sailwx.info

Track history (hours):
 
Tides and Currents Weather Stations Pressure Air Temp Water Temp Dewpoint Dewpoint Depression Visibility Wind Speed Wind Dir Waves Ship Positions

Grandeur Of The Seas

Operator: Royal Caribbean Cruises Ltd

Last reported at 2017-Apr-27 23:52 UTC. Time now 2017-Apr-30 07:04 UTC.
Position N 26°32' W 078°45'.

Type: Passenger vessel. MMSI: 311315000.

Date/timePositionNaut miles runAvg speedWind from/ knotsBaromVisibWave heightAir tempDewpointWater temp
2017-Apr-27 23:52N 26°32' W 078°45'0 0.0
2017-Apr-27 23:28N 26°32' W 078°45'0 0.0
2017-Apr-27 22:43N 26°32' W 078°45'0 0.0
2017-Apr-27 22:28N 26°32' W 078°45'  
2017-Apr-25 06:54N 36°51' W 075°51'4 9.5
2017-Apr-25 06:30N 36°54' W 075°55'5 9.6
2017-Apr-25 06:00N 36°57' W 075°59'11119.0
2017-Apr-25 00:10N 38°46' W 076°26'421.8
2017-Apr-25 00:00N 38°50' W 076°24'1019.9
2017-Apr-24 23:31N 38°59' W 076°23'714.1
2017-Apr-24 23:01N 39°06' W 076°24'612.4
2017-Apr-24 22:30N 39°11' W 076°28'611.3
2017-Apr-24 22:00N 39°15' W 076°34'2 3.7
2017-Apr-24 21:30N 39°16' W 076°36'0 0.1
2017-Apr-24 20:59N 39°16' W 076°36'0 0.0
2017-Apr-24 20:26N 39°16' W 076°36'0 0.0
2017-Apr-24 19:59N 39°16' W 076°36'0 0.0
2017-Apr-24 19:29N 39°16' W 076°36'0 0.0
2017-Apr-24 18:59N 39°16' W 076°36'0 0.0
2017-Apr-24 18:29N 39°16' W 076°36'0 0.0
2017-Apr-24 17:59N 39°16' W 076°36'0 0.0
2017-Apr-24 17:29N 39°16' W 076°36'0 0.0
2017-Apr-24 16:59N 39°16' W 076°36'0 0.0
2017-Apr-24 16:29N 39°16' W 076°36'0 0.0
2017-Apr-24 15:59N 39°16' W 076°36'0 0.0
2017-Apr-24 15:29N 39°16' W 076°36'0 0.0
2017-Apr-24 14:59N 39°16' W 076°36'0 0.0
2017-Apr-24 14:29N 39°16' W 076°36'0 0.0
2017-Apr-24 13:29N 39°16' W 076°36'0 0.0
2017-Apr-24 12:56N 39°16' W 076°36'0 0.0
2017-Apr-24 12:29N 39°16' W 076°36'0 0.0
2017-Apr-24 11:59N 39°16' W 076°36'0 0.0
2017-Apr-24 11:29N 39°16' W 076°36'0 0.0
2017-Apr-24 10:59N 39°16' W 076°36'1 1.8
2017-Apr-24 10:30N 39°15' W 076°35'4 8.4
2017-Apr-24 10:01N 39°12' W 076°31'510.9
2017-Apr-24 09:30N 39°10' W 076°25'713.4
2017-Apr-24 09:00N 39°03' W 076°23'713.5
2017-Apr-24 08:31N 38°56' W 076°23'713.9
2017-Apr-24 08:01N 38°49' W 076°25'713.8
2017-Apr-24 07:31N 38°43' W 076°26'913.8
2017-Apr-24 06:51N 38°34' W 076°26'513.7
2017-Apr-24 06:31N 38°29' W 076°24'714.3
2017-Apr-24 06:00N 38°23' W 076°20'714.4
2017-Apr-24 05:31N 38°16' W 076°17'7312.8
2017-Apr-23 23:48N 37°03' W 076°05'414.2
2017-Apr-23 23:30N 37°00' W 076°02'611.1
2017-Apr-23 23:00N 36°56' W 075°57'5 9.8
2017-Apr-23 22:29N 36°53' W 075°52'  
2017-Apr-18 06:41N 36°51' W 075°51'210.0
2017-Apr-18 06:31N 36°52' W 075°53'5 9.7
2017-Apr-18 06:01N 36°56' W 075°58'4 8.9
2017-Apr-18 05:30N 36°60' W 076°01'5417.8
2017-Apr-18 02:30N 37°53' W 076°09'1020.7
2017-Apr-18 02:00N 38°03' W 076°13'  
Track history (hours):
 
Tides and Currents Weather Stations Pressure Air Temp Water Temp Dewpoint Dewpoint Depression Visibility Wind Speed Wind Dir Waves Ship Positions

Grandeur Of The Seas

Operator: Royal Caribbean Cruises Ltd

Last reported at 2017-Apr-27 23:52 UTC. Time now 2017-Apr-30 07:04 UTC.
Position N 26°32' W 078°45'.

Type: Passenger vessel. MMSI: 311315000.

Date/timePositionNaut miles runAvg speedWind from/ knotsBaromVisibWave heightAir tempDewpointWater temp
2017-Apr-27 23:52N 26°32' W 078°45'0 0.0
2017-Apr-27 23:28N 26°32' W 078°45'0 0.0
2017-Apr-27 22:43N 26°32' W 078°45'0 0.0
2017-Apr-27 22:28N 26°32' W 078°45'  
2017-Apr-25 06:54N 36°51' W 075°51'4 9.5
2017-Apr-25 06:30N 36°54' W 075°55'5 9.6
2017-Apr-25 06:00N 36°57' W 075°59'11119.0
2017-Apr-25 00:10N 38°46' W 076°26'421.8
2017-Apr-25 00:00N 38°50' W 076°24'1019.9
2017-Apr-24 23:31N 38°59' W 076°23'714.1
2017-Apr-24 23:01N 39°06' W 076°24'612.4
2017-Apr-24 22:30N 39°11' W 076°28'611.3
2017-Apr-24 22:00N 39°15' W 076°34'2 3.7
2017-Apr-24 21:30N 39°16' W 076°36'0 0.1
2017-Apr-24 20:59N 39°16' W 076°36'0 0.0
2017-Apr-24 20:26N 39°16' W 076°36'0 0.0
2017-Apr-24 19:59N 39°16' W 076°36'0 0.0
2017-Apr-24 19:29N 39°16' W 076°36'0 0.0
2017-Apr-24 18:59N 39°16' W 076°36'0 0.0
2017-Apr-24 18:29N 39°16' W 076°36'0 0.0
2017-Apr-24 17:59N 39°16' W 076°36'0 0.0
2017-Apr-24 17:29N 39°16' W 076°36'0 0.0
2017-Apr-24 16:59N 39°16' W 076°36'0 0.0
2017-Apr-24 16:29N 39°16' W 076°36'0 0.0
2017-Apr-24 15:59N 39°16' W 076°36'0 0.0
2017-Apr-24 15:29N 39°16' W 076°36'0 0.0
2017-Apr-24 14:59N 39°16' W 076°36'0 0.0
2017-Apr-24 14:29N 39°16' W 076°36'0 0.0
2017-Apr-24 13:29N 39°16' W 076°36'0 0.0
2017-Apr-24 12:56N 39°16' W 076°36'0 0.0
2017-Apr-24 12:29N 39°16' W 076°36'0 0.0
2017-Apr-24 11:59N 39°16' W 076°36'0 0.0
2017-Apr-24 11:29N 39°16' W 076°36'0 0.0
2017-Apr-24 10:59N 39°16' W 076°36'1 1.8
2017-Apr-24 10:30N 39°15' W 076°35'4 8.4
2017-Apr-24 10:01N 39°12' W 076°31'510.9
2017-Apr-24 09:30N 39°10' W 076°25'713.4
2017-Apr-24 09:00N 39°03' W 076°23'713.5
2017-Apr-24 08:31N 38°56' W 076°23'713.9
2017-Apr-24 08:01N 38°49' W 076°25'713.8
2017-Apr-24 07:31N 38°43' W 076°26'913.8
2017-Apr-24 06:51N 38°34' W 076°26'513.7
2017-Apr-24 06:31N 38°29' W 076°24'714.3
2017-Apr-24 06:00N 38°23' W 076°20'714.4
2017-Apr-24 05:31N 38°16' W 076°17'7312.8
2017-Apr-23 23:48N 37°03' W 076°05'414.2
2017-Apr-23 23:30N 37°00' W 076°02'611.1
2017-Apr-23 23:00N 36°56' W 075°57'5 9.8
2017-Apr-23 22:29N 36°53' W 075°52'  
2017-Apr-18 06:41N 36°51' W 075°51'210.0
2017-Apr-18 06:31N 36°52' W 075°53'5 9.7
2017-Apr-18 06:01N 36°56' W 075°58'4 8.9
2017-Apr-18 05:30N 36°60' W 076°01'5417.8
2017-Apr-18 02:30N 37°53' W 076°09'1020.7
2017-Apr-18 02:00N 38°03' W 076°13'  

Dump ship's entire track history